Terminal Aerodrome Forecast
Issued by NWS

Home | Current Version | Previous Version | Text Only | Print | Product List | Glossary On
Versions: 1 2 3 4 5 6 7 8 9 10 11 12 13 14 15 16 17 18 19 20 21
000
FTUS45 KABQ 231123
TAFLVS
TAF
KLVS 231123Z 2312/2412 19012KT P6SM SCT200
     FM231800 21023G33KT P6SM SCT250
     FM240400 20018KT P6SM SCT250=

USA.gov is the U.S. government's official web portal to all federal, state and local government web resources and services.